sensor_id;sensor_type;location;lat;lon;timestamp;P1;durP1;ratioP1;P2;durP2;ratioP2
59824;SDS011;45703;50.898;6.054;2022-10-31T00:02:18;17.23;;;9.40;;
59824;SDS011;45703;50.898;6.054;2022-10-31T00:04:43;15.80;;;8.52;;
59824;SDS011;45703;50.898;6.054;2022-10-31T00:07:08;14.98;;;8.15;;
59824;SDS011;45703;50.898;6.054;2022-10-31T00:09:34;14.48;;;8.48;;
59824;SDS011;45703;50.898;6.054;2022-10-31T00:11:59;16.70;;;9.05;;
59824;SDS011;45703;50.898;6.054;2022-10-31T00:14:24;14.35;;;8.20;;
59824;SDS011;45703;50.898;6.054;2022-10-31T00:16:50;17.00;;;8.57;;
59824;SDS011;45703;50.898;6.054;2022-10-31T00:19:15;17.52;;;8.10;;
59824;SDS011;45703;50.898;6.054;2022-10-31T00:21:40;14.23;;;7.50;;
59824;SDS011;45703;50.898;6.054;2022-10-31T00:24:06;15.45;;;8.93;;
59824;SDS011;45703;50.898;6.054;2022-10-31T00:26:31;20.02;;;7.82;;
59824;SDS011;45703;50.898;6.054;2022-10-31T00:28:58;17.23;;;10.45;;
59824;SDS011;45703;50.898;6.054;2022-10-31T00:31:24;16.40;;;9.63;;
59824;SDS011;45703;50.898;6.054;2022-10-31T00:33:49;16.58;;;9.50;;
59824;SDS011;45703;50.898;6.054;2022-10-31T00:36:16;14.93;;;8.82;;
59824;SDS011;45703;50.898;6.054;2022-10-31T00:38:44;17.35;;;9.93;;
59824;SDS011;45703;50.898;6.054;2022-10-31T00:41:11;17.30;;;9.50;;
59824;SDS011;45703;50.898;6.054;2022-10-31T00:43:37;15.00;;;9.40;;
59824;SDS011;45703;50.898;6.054;2022-10-31T00:46:03;19.42;;;9.90;;
59824;SDS011;45703;50.898;6.054;2022-10-31T00:48:28;17.98;;;9.13;;
59824;SDS011;45703;50.898;6.054;2022-10-31T00:50:54;16.40;;;8.45;;
59824;SDS011;45703;50.898;6.054;2022-10-31T00:53:19;18.05;;;9.05;;
59824;SDS011;45703;50.898;6.054;2022-10-31T00:55:45;14.32;;;8.75;;
59824;SDS011;45703;50.898;6.054;2022-10-31T00:58:10;17.38;;;8.85;;
59824;SDS011;45703;50.898;6.054;2022-10-31T01:00:35;15.32;;;9.05;;
59824;SDS011;45703;50.898;6.054;2022-10-31T01:03:01;17.85;;;9.43;;
59824;SDS011;45703;50.898;6.054;2022-10-31T01:05:26;17.13;;;8.63;;
59824;SDS011;45703;50.898;6.054;2022-10-31T01:07:51;15.15;;;7.53;;
59824;SDS011;45703;50.898;6.054;2022-10-31T01:10:17;17.42;;;8.30;;
59824;SDS011;45703;50.898;6.054;2022-10-31T01:12:46;13.93;;;7.55;;
59824;SDS011;45703;50.898;6.054;2022-10-31T01:15:13;15.70;;;7.93;;
59824;SDS011;45703;50.898;6.054;2022-10-31T01:20:09;15.90;;;7.95;;
59824;SDS011;45703;50.898;6.054;2022-10-31T01:22:36;15.82;;;7.57;;
59824;SDS011;45703;50.898;6.054;2022-10-31T01:25:01;15.73;;;8.57;;
59824;SDS011;45703;50.898;6.054;2022-10-31T01:27:27;15.32;;;8.63;;
59824;SDS011;45703;50.898;6.054;2022-10-31T01:29:53;15.65;;;8.70;;
59824;SDS011;45703;50.898;6.054;2022-10-31T01:32:18;13.80;;;8.57;;
59824;SDS011;45703;50.898;6.054;2022-10-31T01:34:43;14.32;;;8.57;;
59824;SDS011;45703;50.898;6.054;2022-10-31T01:37:09;14.70;;;8.10;;
59824;SDS011;45703;50.898;6.054;2022-10-31T01:39:34;14.40;;;7.97;;
59824;SDS011;45703;50.898;6.054;2022-10-31T01:42:00;16.27;;;8.48;;
59824;SDS011;45703;50.898;6.054;2022-10-31T01:55:27;15.38;;;8.48;;
59824;SDS011;45703;50.898;6.054;2022-10-31T01:57:55;15.85;;;8.98;;
59824;SDS011;45703;50.898;6.054;2022-10-31T02:00:24;15.57;;;8.98;;
59824;SDS011;45703;50.898;6.054;2022-10-31T02:02:50;16.88;;;8.27;;
59824;SDS011;45703;50.898;6.054;2022-10-31T02:05:17;15.32;;;8.60;;
59824;SDS011;45703;50.898;6.054;2022-10-31T02:10:16;16.38;;;8.55;;
59824;SDS011;45703;50.898;6.054;2022-10-31T02:12:41;14.68;;;8.02;;
59824;SDS011;45703;50.898;6.054;2022-10-31T02:15:08;15.27;;;7.57;;
59824;SDS011;45703;50.898;6.054;2022-10-31T02:17:34;15.52;;;9.27;;
59824;SDS011;45703;50.898;6.054;2022-10-31T02:22:30;22.65;;;12.25;;
59824;SDS011;45703;50.898;6.054;2022-10-31T02:30:18;24.67;;;12.38;;
59824;SDS011;45703;50.898;6.054;2022-10-31T02:35:29;16.88;;;9.52;;
59824;SDS011;45703;50.898;6.054;2022-10-31T02:40:45;19.05;;;9.65;;
59824;SDS011;45703;50.898;6.054;2022-10-31T02:48:33;16.85;;;8.82;;
59824;SDS011;45703;50.898;6.054;2022-10-31T02:51:03;15.77;;;9.40;;
59824;SDS011;45703;50.898;6.054;2022-10-31T02:53:33;16.40;;;8.75;;
59824;SDS011;45703;50.898;6.054;2022-10-31T02:58:48;17.25;;;8.45;;
59824;SDS011;45703;50.898;6.054;2022-10-31T03:06:23;17.63;;;9.68;;
59824;SDS011;45703;50.898;6.054;2022-10-31T03:11:39;18.20;;;11.65;;
59824;SDS011;45703;50.898;6.054;2022-10-31T03:14:23;19.45;;;12.88;;
59824;SDS011;45703;50.898;6.054;2022-10-31T03:16:56;17.58;;;12.05;;
59824;SDS011;45703;50.898;6.054;2022-10-31T03:19:29;17.67;;;9.60;;
59824;SDS011;45703;50.898;6.054;2022-10-31T03:21:59;17.23;;;9.13;;
59824;SDS011;45703;50.898;6.054;2022-10-31T03:24:30;14.82;;;9.00;;
59824;SDS011;45703;50.898;6.054;2022-10-31T03:29:27;15.63;;;8.45;;
59824;SDS011;45703;50.898;6.054;2022-10-31T03:31:57;16.38;;;9.20;;
59824;SDS011;45703;50.898;6.054;2022-10-31T03:34:26;18.35;;;8.68;;
59824;SDS011;45703;50.898;6.054;2022-10-31T03:36:54;16.85;;;9.38;;
59824;SDS011;45703;50.898;6.054;2022-10-31T03:39:22;12.88;;;8.38;;
59824;SDS011;45703;50.898;6.054;2022-10-31T03:41:59;16.17;;;9.40;;
59824;SDS011;45703;50.898;6.054;2022-10-31T03:44:29;14.07;;;8.55;;
59824;SDS011;45703;50.898;6.054;2022-10-31T03:46:57;15.38;;;9.57;;
59824;SDS011;45703;50.898;6.054;2022-10-31T03:49:23;16.65;;;9.02;;
59824;SDS011;45703;50.898;6.054;2022-10-31T03:51:51;14.45;;;8.65;;
59824;SDS011;45703;50.898;6.054;2022-10-31T03:57:05;19.35;;;10.77;;
59824;SDS011;45703;50.898;6.054;2022-10-31T03:59:51;18.60;;;10.10;;
59824;SDS011;45703;50.898;6.054;2022-10-31T04:04:51;19.83;;;10.00;;
59824;SDS011;45703;50.898;6.054;2022-10-31T04:07:17;17.48;;;9.05;;
59824;SDS011;45703;50.898;6.054;2022-10-31T04:09:45;16.20;;;8.57;;
59824;SDS011;45703;50.898;6.054;2022-10-31T04:12:13;15.77;;;9.10;;
59824;SDS011;45703;50.898;6.054;2022-10-31T04:14:40;16.42;;;9.20;;
59824;SDS011;45703;50.898;6.054;2022-10-31T04:17:10;15.88;;;8.23;;
59824;SDS011;45703;50.898;6.054;2022-10-31T04:19:38;16.30;;;8.70;;
59824;SDS011;45703;50.898;6.054;2022-10-31T04:22:03;14.70;;;8.02;;
59824;SDS011;45703;50.898;6.054;2022-10-31T04:24:29;18.38;;;8.60;;
59824;SDS011;45703;50.898;6.054;2022-10-31T04:26:54;14.63;;;8.52;;
59824;SDS011;45703;50.898;6.054;2022-10-31T04:29:20;16.83;;;9.45;;
59824;SDS011;45703;50.898;6.054;2022-10-31T04:31:45;18.55;;;9.85;;
59824;SDS011;45703;50.898;6.054;2022-10-31T04:34:10;23.58;;;12.68;;
59824;SDS011;45703;50.898;6.054;2022-10-31T04:36:36;22.08;;;12.95;;
59824;SDS011;45703;50.898;6.054;2022-10-31T04:39:01;20.55;;;10.70;;
59824;SDS011;45703;50.898;6.054;2022-10-31T04:41:26;18.25;;;10.60;;
59824;SDS011;45703;50.898;6.054;2022-10-31T04:43:52;18.35;;;9.95;;
59824;SDS011;45703;50.898;6.054;2022-10-31T04:46:17;20.45;;;10.32;;
59824;SDS011;45703;50.898;6.054;2022-10-31T04:48:42;17.83;;;9.43;;
59824;SDS011;45703;50.898;6.054;2022-10-31T04:51:08;13.88;;;8.00;;
59824;SDS011;45703;50.898;6.054;2022-10-31T04:53:33;16.95;;;8.25;;
59824;SDS011;45703;50.898;6.054;2022-10-31T04:55:58;17.30;;;8.48;;
59824;SDS011;45703;50.898;6.054;2022-10-31T04:58:27;17.40;;;8.15;;
59824;SDS011;45703;50.898;6.054;2022-10-31T05:00:53;17.02;;;7.95;;
59824;SDS011;45703;50.898;6.054;2022-10-31T05:03:19;16.45;;;8.30;;
59824;SDS011;45703;50.898;6.054;2022-10-31T05:05:44;16.85;;;8.57;;
59824;SDS011;45703;50.898;6.054;2022-10-31T05:08:10;14.15;;;7.90;;
59824;SDS011;45703;50.898;6.054;2022-10-31T05:10:35;13.27;;;7.03;;
59824;SDS011;45703;50.898;6.054;2022-10-31T05:13:01;14.98;;;7.70;;
59824;SDS011;45703;50.898;6.054;2022-10-31T05:15:28;15.43;;;7.80;;
59824;SDS011;45703;50.898;6.054;2022-10-31T05:17:54;12.27;;;7.30;;
59824;SDS011;45703;50.898;6.054;2022-10-31T05:20:21;13.95;;;7.32;;
59824;SDS011;45703;50.898;6.054;2022-10-31T05:22:48;15.23;;;7.13;;
59824;SDS011;45703;50.898;6.054;2022-10-31T05:25:16;14.18;;;7.45;;
59824;SDS011;45703;50.898;6.054;2022-10-31T05:27:44;13.95;;;7.38;;
59824;SDS011;45703;50.898;6.054;2022-10-31T05:30:11;14.25;;;7.00;;
59824;SDS011;45703;50.898;6.054;2022-10-31T05:32:39;14.40;;;6.88;;
59824;SDS011;45703;50.898;6.054;2022-10-31T05:35:10;13.63;;;7.55;;
59824;SDS011;45703;50.898;6.054;2022-10-31T05:37:55;13.35;;;7.53;;
59824;SDS011;45703;50.898;6.054;2022-10-31T05:40:22;14.02;;;7.40;;
59824;SDS011;45703;50.898;6.054;2022-10-31T05:42:50;16.55;;;6.97;;
59824;SDS011;45703;50.898;6.054;2022-10-31T05:45:17;13.90;;;7.18;;
59824;SDS011;45703;50.898;6.054;2022-10-31T05:47:50;13.80;;;7.47;;
59824;SDS011;45703;50.898;6.054;2022-10-31T05:50:18;13.00;;;7.15;;
59824;SDS011;45703;50.898;6.054;2022-10-31T05:52:44;14.07;;;7.47;;
59824;SDS011;45703;50.898;6.054;2022-10-31T05:55:10;13.48;;;6.72;;
59824;SDS011;45703;50.898;6.054;2022-10-31T05:57:35;12.57;;;6.60;;
59824;SDS011;45703;50.898;6.054;2022-10-31T06:00:00;13.25;;;6.70;;
59824;SDS011;45703;50.898;6.054;2022-10-31T06:02:26;14.13;;;7.82;;
59824;SDS011;45703;50.898;6.054;2022-10-31T06:04:51;11.48;;;6.18;;
59824;SDS011;45703;50.898;6.054;2022-10-31T06:07:17;13.80;;;6.05;;
59824;SDS011;45703;50.898;6.054;2022-10-31T06:09:42;11.73;;;6.68;;
59824;SDS011;45703;50.898;6.054;2022-10-31T06:12:08;13.15;;;6.40;;
59824;SDS011;45703;50.898;6.054;2022-10-31T06:14:33;11.95;;;6.05;;
59824;SDS011;45703;50.898;6.054;2022-10-31T06:16:58;13.27;;;6.47;;
59824;SDS011;45703;50.898;6.054;2022-10-31T06:19:24;11.65;;;5.93;;
59824;SDS011;45703;50.898;6.054;2022-10-31T06:21:49;12.63;;;5.55;;
59824;SDS011;45703;50.898;6.054;2022-10-31T06:24:14;11.35;;;5.93;;
59824;SDS011;45703;50.898;6.054;2022-10-31T06:26:40;13.68;;;6.45;;
59824;SDS011;45703;50.898;6.054;2022-10-31T06:29:06;11.43;;;5.78;;
59824;SDS011;45703;50.898;6.054;2022-10-31T06:31:31;12.27;;;5.82;;
59824;SDS011;45703;50.898;6.054;2022-10-31T06:33:57;10.32;;;5.53;;
59824;SDS011;45703;50.898;6.054;2022-10-31T06:36:22;12.82;;;5.43;;
59824;SDS011;45703;50.898;6.054;2022-10-31T06:38:47;10.82;;;5.13;;
59824;SDS011;45703;50.898;6.054;2022-10-31T06:41:13;12.65;;;6.00;;
59824;SDS011;45703;50.898;6.054;2022-10-31T06:43:38;12.48;;;6.13;;
59824;SDS011;45703;50.898;6.054;2022-10-31T06:46:04;14.60;;;5.90;;
59824;SDS011;45703;50.898;6.054;2022-10-31T06:48:30;11.77;;;5.88;;
59824;SDS011;45703;50.898;6.054;2022-10-31T06:50:57;13.15;;;5.85;;
59824;SDS011;45703;50.898;6.054;2022-10-31T06:53:24;13.00;;;6.20;;
59824;SDS011;45703;50.898;6.054;2022-10-31T06:55:49;14.05;;;6.47;;
59824;SDS011;45703;50.898;6.054;2022-10-31T06:58:14;12.30;;;6.63;;
59824;SDS011;45703;50.898;6.054;2022-10-31T07:00:40;13.80;;;6.38;;
59824;SDS011;45703;50.898;6.054;2022-10-31T07:03:06;13.23;;;5.90;;
59824;SDS011;45703;50.898;6.054;2022-10-31T07:05:35;16.60;;;6.38;;
59824;SDS011;45703;50.898;6.054;2022-10-31T07:08:02;24.25;;;8.07;;
59824;SDS011;45703;50.898;6.054;2022-10-31T07:10:29;15.68;;;6.93;;
59824;SDS011;45703;50.898;6.054;2022-10-31T07:12:58;17.83;;;7.15;;
59824;SDS011;45703;50.898;6.054;2022-10-31T07:15:25;16.38;;;7.32;;
59824;SDS011;45703;50.898;6.054;2022-10-31T07:17:52;15.55;;;7.28;;
59824;SDS011;45703;50.898;6.054;2022-10-31T07:20:17;18.10;;;7.43;;
59824;SDS011;45703;50.898;6.054;2022-10-31T07:22:43;15.82;;;6.72;;
59824;SDS011;45703;50.898;6.054;2022-10-31T07:25:09;14.80;;;7.03;;
59824;SDS011;45703;50.898;6.054;2022-10-31T07:27:38;15.60;;;6.82;;
59824;SDS011;45703;50.898;6.054;2022-10-31T07:30:04;16.05;;;7.53;;
59824;SDS011;45703;50.898;6.054;2022-10-31T07:32:37;15.52;;;7.85;;
59824;SDS011;45703;50.898;6.054;2022-10-31T07:35:04;15.27;;;7.30;;
59824;SDS011;45703;50.898;6.054;2022-10-31T07:37:30;15.65;;;7.20;;
59824;SDS011;45703;50.898;6.054;2022-10-31T07:39:55;15.68;;;7.88;;
59824;SDS011;45703;50.898;6.054;2022-10-31T07:42:21;16.15;;;7.82;;
59824;SDS011;45703;50.898;6.054;2022-10-31T07:44:46;17.10;;;8.30;;
59824;SDS011;45703;50.898;6.054;2022-10-31T07:47:11;15.80;;;7.60;;
59824;SDS011;45703;50.898;6.054;2022-10-31T07:49:37;14.40;;;6.95;;
59824;SDS011;45703;50.898;6.054;2022-10-31T07:52:02;15.68;;;7.93;;
59824;SDS011;45703;50.898;6.054;2022-10-31T07:54:27;19.70;;;9.07;;
59824;SDS011;45703;50.898;6.054;2022-10-31T07:56:53;17.35;;;8.45;;
59824;SDS011;45703;50.898;6.054;2022-10-31T07:59:18;17.92;;;9.02;;
59824;SDS011;45703;50.898;6.054;2022-10-31T08:01:43;18.23;;;8.23;;
59824;SDS011;45703;50.898;6.054;2022-10-31T08:04:09;15.32;;;8.32;;
59824;SDS011;45703;50.898;6.054;2022-10-31T08:06:34;17.52;;;8.98;;
59824;SDS011;45703;50.898;6.054;2022-10-31T08:08:59;16.27;;;8.73;;
59824;SDS011;45703;50.898;6.054;2022-10-31T08:11:25;17.38;;;8.98;;
59824;SDS011;45703;50.898;6.054;2022-10-31T08:13:50;17.52;;;8.63;;
59824;SDS011;45703;50.898;6.054;2022-10-31T08:16:15;15.45;;;9.00;;
59824;SDS011;45703;50.898;6.054;2022-10-31T08:18:41;18.30;;;9.52;;
59824;SDS011;45703;50.898;6.054;2022-10-31T08:21:06;19.00;;;9.13;;
59824;SDS011;45703;50.898;6.054;2022-10-31T08:23:32;18.70;;;9.57;;
59824;SDS011;45703;50.898;6.054;2022-10-31T08:25:57;17.88;;;9.25;;
59824;SDS011;45703;50.898;6.054;2022-10-31T08:28:23;21.25;;;9.98;;
59824;SDS011;45703;50.898;6.054;2022-10-31T08:30:48;19.98;;;9.27;;
59824;SDS011;45703;50.898;6.054;2022-10-31T08:33:15;17.90;;;9.63;;
59824;SDS011;45703;50.898;6.054;2022-10-31T08:35:42;18.75;;;9.25;;
59824;SDS011;45703;50.898;6.054;2022-10-31T08:38:08;18.52;;;9.45;;
59824;SDS011;45703;50.898;6.054;2022-10-31T08:40:35;19.10;;;9.35;;
59824;SDS011;45703;50.898;6.054;2022-10-31T08:43:05;17.27;;;9.68;;
59824;SDS011;45703;50.898;6.054;2022-10-31T08:45:35;23.75;;;9.82;;
59824;SDS011;45703;50.898;6.054;2022-10-31T08:48:01;18.75;;;9.82;;
59824;SDS011;45703;50.898;6.054;2022-10-31T08:50:28;20.00;;;10.23;;
59824;SDS011;45703;50.898;6.054;2022-10-31T08:53:11;18.88;;;9.88;;
59824;SDS011;45703;50.898;6.054;2022-10-31T08:55:40;17.90;;;9.80;;
59824;SDS011;45703;50.898;6.054;2022-10-31T08:58:07;21.00;;;10.80;;
59824;SDS011;45703;50.898;6.054;2022-10-31T09:00:38;18.45;;;10.10;;
59824;SDS011;45703;50.898;6.054;2022-10-31T09:03:05;19.50;;;10.35;;
59824;SDS011;45703;50.898;6.054;2022-10-31T09:05:34;18.63;;;9.93;;
59824;SDS011;45703;50.898;6.054;2022-10-31T09:08:00;20.85;;;10.35;;
59824;SDS011;45703;50.898;6.054;2022-10-31T09:10:28;22.17;;;10.73;;
59824;SDS011;45703;50.898;6.054;2022-10-31T09:12:58;20.33;;;9.57;;
59824;SDS011;45703;50.898;6.054;2022-10-31T09:15:25;22.80;;;10.63;;
59824;SDS011;45703;50.898;6.054;2022-10-31T09:17:51;19.40;;;9.98;;
59824;SDS011;45703;50.898;6.054;2022-10-31T09:20:16;20.38;;;10.60;;
59824;SDS011;45703;50.898;6.054;2022-10-31T09:22:42;21.55;;;11.15;;
59824;SDS011;45703;50.898;6.054;2022-10-31T09:25:08;19.98;;;10.95;;
59824;SDS011;45703;50.898;6.054;2022-10-31T09:27:33;23.83;;;13.32;;
59824;SDS011;45703;50.898;6.054;2022-10-31T09:29:58;23.42;;;12.57;;
59824;SDS011;45703;50.898;6.054;2022-10-31T09:32:24;21.40;;;11.77;;
59824;SDS011;45703;50.898;6.054;2022-10-31T09:34:49;25.45;;;12.82;;
59824;SDS011;45703;50.898;6.054;2022-10-31T09:37:14;23.77;;;13.40;;
59824;SDS011;45703;50.898;6.054;2022-10-31T09:39:40;24.30;;;12.60;;
59824;SDS011;45703;50.898;6.054;2022-10-31T09:47:44;24.60;;;12.30;;
59824;SDS011;45703;50.898;6.054;2022-10-31T09:50:21;19.20;;;11.35;;
59824;SDS011;45703;50.898;6.054;2022-10-31T09:52:56;22.58;;;11.88;;
59824;SDS011;45703;50.898;6.054;2022-10-31T09:58:16;24.50;;;12.07;;
59824;SDS011;45703;50.898;6.054;2022-10-31T10:00:44;22.70;;;11.60;;
59824;SDS011;45703;50.898;6.054;2022-10-31T10:06:04;20.20;;;11.68;;
59824;SDS011;45703;50.898;6.054;2022-10-31T10:08:32;21.90;;;11.25;;
59824;SDS011;45703;50.898;6.054;2022-10-31T10:25:21;21.65;;;11.25;;
59824;SDS011;45703;50.898;6.054;2022-10-31T10:30:17;21.50;;;10.65;;
59824;SDS011;45703;50.898;6.054;2022-10-31T10:35:23;17.70;;;9.77;;
59824;SDS011;45703;50.898;6.054;2022-10-31T10:40:23;15.75;;;8.65;;
59824;SDS011;45703;50.898;6.054;2022-10-31T10:42:55;15.85;;;8.85;;
59824;SDS011;45703;50.898;6.054;2022-10-31T10:45:48;18.50;;;9.35;;
59824;SDS011;45703;50.898;6.054;2022-10-31T10:48:58;23.48;;;10.48;;
59824;SDS011;45703;50.898;6.054;2022-10-31T10:54:41;18.52;;;8.68;;
59824;SDS011;45703;50.898;6.054;2022-10-31T10:57:22;16.77;;;8.10;;
59824;SDS011;45703;50.898;6.054;2022-10-31T10:59:58;15.38;;;8.95;;
59824;SDS011;45703;50.898;6.054;2022-10-31T11:02:27;20.25;;;8.52;;
59824;SDS011;45703;50.898;6.054;2022-10-31T11:04:57;26.52;;;8.73;;
59824;SDS011;45703;50.898;6.054;2022-10-31T11:07:25;22.15;;;8.82;;
59824;SDS011;45703;50.898;6.054;2022-10-31T11:09:50;19.00;;;8.25;;
59824;SDS011;45703;50.898;6.054;2022-10-31T11:12:30;22.00;;;8.55;;
59824;SDS011;45703;50.898;6.054;2022-10-31T11:22:29;22.63;;;12.13;;
59824;SDS011;45703;50.898;6.054;2022-10-31T11:24:55;27.63;;;12.57;;
59824;SDS011;45703;50.898;6.054;2022-10-31T11:27:21;26.35;;;14.55;;
59824;SDS011;45703;50.898;6.054;2022-10-31T11:29:49;27.13;;;12.82;;
59824;SDS011;45703;50.898;6.054;2022-10-31T11:32:17;21.23;;;11.70;;
59824;SDS011;45703;50.898;6.054;2022-10-31T11:34:43;23.30;;;11.98;;
59824;SDS011;45703;50.898;6.054;2022-10-31T11:39:43;19.83;;;9.32;;
59824;SDS011;45703;50.898;6.054;2022-10-31T11:42:10;15.15;;;8.55;;
59824;SDS011;45703;50.898;6.054;2022-10-31T11:44:36;13.27;;;8.10;;
59824;SDS011;45703;50.898;6.054;2022-10-31T11:47:10;18.38;;;8.27;;
59824;SDS011;45703;50.898;6.054;2022-10-31T11:49:42;18.25;;;8.30;;
59824;SDS011;45703;50.898;6.054;2022-10-31T11:52:13;24.63;;;9.50;;
59824;SDS011;45703;50.898;6.054;2022-10-31T11:54:46;18.02;;;8.77;;
59824;SDS011;45703;50.898;6.054;2022-10-31T11:57:42;18.77;;;7.85;;
59824;SDS011;45703;50.898;6.054;2022-10-31T12:00:25;17.63;;;7.95;;
59824;SDS011;45703;50.898;6.054;2022-10-31T12:05:36;17.45;;;8.05;;
59824;SDS011;45703;50.898;6.054;2022-10-31T12:08:04;18.08;;;7.53;;
59824;SDS011;45703;50.898;6.054;2022-10-31T12:13:40;14.90;;;6.90;;
59824;SDS011;45703;50.898;6.054;2022-10-31T12:16:34;18.67;;;7.03;;
59824;SDS011;45703;50.898;6.054;2022-10-31T12:19:17;14.73;;;6.57;;
59824;SDS011;45703;50.898;6.054;2022-10-31T12:24:43;13.98;;;5.75;;
59824;SDS011;45703;50.898;6.054;2022-10-31T12:27:19;14.32;;;6.00;;
59824;SDS011;45703;50.898;6.054;2022-10-31T12:29:57;11.73;;;5.88;;
59824;SDS011;45703;50.898;6.054;2022-10-31T12:35:29;11.82;;;5.40;;
59824;SDS011;45703;50.898;6.054;2022-10-31T12:43:53;13.48;;;6.30;;
59824;SDS011;45703;50.898;6.054;2022-10-31T12:49:31;15.05;;;6.65;;
59824;SDS011;45703;50.898;6.054;2022-10-31T12:57:40;13.65;;;6.40;;
59824;SDS011;45703;50.898;6.054;2022-10-31T13:02:51;14.32;;;6.47;;
59824;SDS011;45703;50.898;6.054;2022-10-31T13:05:29;13.27;;;6.60;;
59824;SDS011;45703;50.898;6.054;2022-10-31T13:08:01;16.27;;;6.22;;
59824;SDS011;45703;50.898;6.054;2022-10-31T13:13:26;13.65;;;6.38;;
59824;SDS011;45703;50.898;6.054;2022-10-31T13:16:03;19.63;;;6.88;;
59824;SDS011;45703;50.898;6.054;2022-10-31T13:18:33;16.80;;;7.22;;
59824;SDS011;45703;50.898;6.054;2022-10-31T13:21:12;16.60;;;6.47;;
59824;SDS011;45703;50.898;6.054;2022-10-31T13:23:43;13.48;;;5.95;;
59824;SDS011;45703;50.898;6.054;2022-10-31T13:28:52;17.33;;;6.93;;
59824;SDS011;45703;50.898;6.054;2022-10-31T13:31:25;13.43;;;5.93;;
59824;SDS011;45703;50.898;6.054;2022-10-31T13:33:54;16.50;;;6.68;;
59824;SDS011;45703;50.898;6.054;2022-10-31T13:36:39;16.33;;;7.50;;
59824;SDS011;45703;50.898;6.054;2022-10-31T13:44:41;14.63;;;6.50;;
59824;SDS011;45703;50.898;6.054;2022-10-31T13:47:28;14.32;;;5.75;;
59824;SDS011;45703;50.898;6.054;2022-10-31T13:50:18;10.57;;;5.03;;
59824;SDS011;45703;50.898;6.054;2022-10-31T13:52:44;13.40;;;5.07;;
59824;SDS011;45703;50.898;6.054;2022-10-31T13:58:24;13.68;;;6.18;;
59824;SDS011;45703;50.898;6.054;2022-10-31T14:03:35;11.27;;;4.63;;
59824;SDS011;45703;50.898;6.054;2022-10-31T14:06:02;13.43;;;4.95;;
59824;SDS011;45703;50.898;6.054;2022-10-31T14:08:29;11.75;;;4.97;;
59824;SDS011;45703;50.898;6.054;2022-10-31T14:10:59;10.77;;;4.25;;
59824;SDS011;45703;50.898;6.054;2022-10-31T14:13:32;10.57;;;4.60;;
59824;SDS011;45703;50.898;6.054;2022-10-31T14:18:57;11.88;;;5.07;;
59824;SDS011;45703;50.898;6.054;2022-10-31T14:21:36;11.32;;;4.50;;
59824;SDS011;45703;50.898;6.054;2022-10-31T14:24:13;12.02;;;4.70;;
59824;SDS011;45703;50.898;6.054;2022-10-31T14:26:54;12.35;;;4.78;;
59824;SDS011;45703;50.898;6.054;2022-10-31T14:29:28;13.15;;;4.65;;
59824;SDS011;45703;50.898;6.054;2022-10-31T14:32:14;12.90;;;4.25;;
59824;SDS011;45703;50.898;6.054;2022-10-31T14:51:09;14.05;;;5.32;;
59824;SDS011;45703;50.898;6.054;2022-10-31T14:56:11;12.38;;;4.40;;
59824;SDS011;45703;50.898;6.054;2022-10-31T15:01:04;8.43;;;4.05;;
59824;SDS011;45703;50.898;6.054;2022-10-31T15:03:35;11.00;;;4.38;;
59824;SDS011;45703;50.898;6.054;2022-10-31T15:06:13;10.13;;;4.07;;
59824;SDS011;45703;50.898;6.054;2022-10-31T15:08:48;9.43;;;4.28;;
59824;SDS011;45703;50.898;6.054;2022-10-31T15:11:20;10.07;;;4.05;;
59824;SDS011;45703;50.898;6.054;2022-10-31T15:16:13;9.30;;;4.00;;
59824;SDS011;45703;50.898;6.054;2022-10-31T15:18:49;10.02;;;4.25;;
59824;SDS011;45703;50.898;6.054;2022-10-31T15:21:17;11.13;;;4.45;;
59824;SDS011;45703;50.898;6.054;2022-10-31T15:23:45;13.20;;;4.28;;
59824;SDS011;45703;50.898;6.054;2022-10-31T15:26:15;11.55;;;4.57;;
59824;SDS011;45703;50.898;6.054;2022-10-31T15:28:46;10.43;;;4.47;;
59824;SDS011;45703;50.898;6.054;2022-10-31T15:31:22;11.07;;;4.10;;
59824;SDS011;45703;50.898;6.054;2022-10-31T15:33:48;10.18;;;4.60;;
59824;SDS011;45703;50.898;6.054;2022-10-31T15:36:19;10.55;;;4.10;;
59824;SDS011;45703;50.898;6.054;2022-10-31T15:38:49;12.15;;;4.78;;
59824;SDS011;45703;50.898;6.054;2022-10-31T15:41:35;9.98;;;4.25;;
59824;SDS011;45703;50.898;6.054;2022-10-31T15:44:03;11.38;;;4.60;;
59824;SDS011;45703;50.898;6.054;2022-10-31T15:46:37;9.60;;;4.82;;
59824;SDS011;45703;50.898;6.054;2022-10-31T15:49:02;10.95;;;4.78;;
59824;SDS011;45703;50.898;6.054;2022-10-31T15:51:29;9.48;;;4.50;;
59824;SDS011;45703;50.898;6.054;2022-10-31T15:53:58;9.00;;;4.07;;
59824;SDS011;45703;50.898;6.054;2022-10-31T15:56:26;9.45;;;4.05;;
59824;SDS011;45703;50.898;6.054;2022-10-31T15:58:54;9.70;;;4.38;;
59824;SDS011;45703;50.898;6.054;2022-10-31T16:06:36;9.95;;;4.03;;
59824;SDS011;45703;50.898;6.054;2022-10-31T16:09:02;9.60;;;4.10;;
59824;SDS011;45703;50.898;6.054;2022-10-31T16:16:51;9.02;;;4.30;;
59824;SDS011;45703;50.898;6.054;2022-10-31T16:19:27;10.82;;;4.55;;
59824;SDS011;45703;50.898;6.054;2022-10-31T16:21:55;11.27;;;4.20;;
59824;SDS011;45703;50.898;6.054;2022-10-31T16:24:29;10.77;;;4.28;;
59824;SDS011;45703;50.898;6.054;2022-10-31T16:27:04;11.20;;;4.40;;
59824;SDS011;45703;50.898;6.054;2022-10-31T16:29:33;12.50;;;3.70;;
59824;SDS011;45703;50.898;6.054;2022-10-31T16:32:03;8.32;;;3.70;;
59824;SDS011;45703;50.898;6.054;2022-10-31T16:34:28;11.73;;;4.63;;
59824;SDS011;45703;50.898;6.054;2022-10-31T16:36:54;10.13;;;4.70;;
59824;SDS011;45703;50.898;6.054;2022-10-31T16:39:19;9.93;;;5.10;;
59824;SDS011;45703;50.898;6.054;2022-10-31T16:41:46;9.55;;;4.47;;
59824;SDS011;45703;50.898;6.054;2022-10-31T16:46:42;9.88;;;4.55;;
59824;SDS011;45703;50.898;6.054;2022-10-31T16:49:08;11.25;;;5.43;;
59824;SDS011;45703;50.898;6.054;2022-10-31T16:51:34;10.77;;;4.55;;
59824;SDS011;45703;50.898;6.054;2022-10-31T16:54:00;10.43;;;4.93;;
59824;SDS011;45703;50.898;6.054;2022-10-31T16:56:32;10.07;;;5.10;;
59824;SDS011;45703;50.898;6.054;2022-10-31T16:58:59;11.13;;;4.60;;
59824;SDS011;45703;50.898;6.054;2022-10-31T17:01:27;10.93;;;4.47;;
59824;SDS011;45703;50.898;6.054;2022-10-31T17:03:53;12.48;;;5.65;;
59824;SDS011;45703;50.898;6.054;2022-10-31T17:06:18;11.23;;;4.90;;
59824;SDS011;45703;50.898;6.054;2022-10-31T17:08:44;13.15;;;4.93;;
59824;SDS011;45703;50.898;6.054;2022-10-31T17:11:13;9.73;;;5.00;;
59824;SDS011;45703;50.898;6.054;2022-10-31T17:13:42;13.75;;;5.65;;
59824;SDS011;45703;50.898;6.054;2022-10-31T17:16:08;10.30;;;5.43;;
59824;SDS011;45703;50.898;6.054;2022-10-31T17:18:33;14.13;;;6.03;;
59824;SDS011;45703;50.898;6.054;2022-10-31T17:21:00;11.70;;;5.63;;
59824;SDS011;45703;50.898;6.054;2022-10-31T17:23:27;15.65;;;5.72;;
59824;SDS011;45703;50.898;6.054;2022-10-31T17:25:53;11.68;;;5.70;;
59824;SDS011;45703;50.898;6.054;2022-10-31T17:28:18;14.55;;;6.32;;
59824;SDS011;45703;50.898;6.054;2022-10-31T17:30:44;12.43;;;6.72;;
59824;SDS011;45703;50.898;6.054;2022-10-31T17:33:11;14.85;;;7.85;;
59824;SDS011;45703;50.898;6.054;2022-10-31T17:35:38;12.32;;;7.10;;
59824;SDS011;45703;50.898;6.054;2022-10-31T17:38:03;14.20;;;7.97;;
59824;SDS011;45703;50.898;6.054;2022-10-31T17:40:29;12.82;;;6.80;;
59824;SDS011;45703;50.898;6.054;2022-10-31T17:42:55;12.52;;;6.00;;
59824;SDS011;45703;50.898;6.054;2022-10-31T17:45:22;14.98;;;6.90;;
59824;SDS011;45703;50.898;6.054;2022-10-31T17:47:49;12.45;;;6.28;;